Hilltop, West Virginia
Current Conditions -  °F | °C
As of 11:03 AM on Friday 24 Oct 2014 (Local Time) from KBKW Reporting Station
Scattered Clouds Scattered Clouds  
Wind Chill: 45°   Ceiling: Unl
Heat Index: 45°   Visibility: 10mi
Dew Point: 41°   Wind: 0mph
Humidity: 86%   Direction: NA
Pressure: 30.13"   Gusts: NA
Location:  37.94°N, 81.15°W
Report Text: KBKW 241503Z AUTO 00000KT 10SM SCT008 07/05 A3013 RMK AO2 T00720050 TSNO
Loading
Personal Weather Stations






























Interactive Weather Map
Tropical Storm Tracking
New forecast layout! Learn more

10-Day Weather Forecast

Advertisements
Track Severe Weather on mobile